Time;durP1;ratioP1;P1;durP2;ratioP2;P2;SDS_P1;SDS_P2;PMS_P1;PMS_P2;Temp;Humidity;BMP_temperature;BMP_pressure;BME280_temperature;BME280_humidity;BME280_pressure;Samples;Min_cycle;Max_cycle;Signal;HPM_P1;HPM_P2
2023/08/19 00:04:27;;;;;;;11.27;9.55;;;19.10;99.90;;;;;;10248382;28;20245;-86
2023/08/19 00:09:34;;;;;;;14.43;10.93;;;19.10;99.90;;;;;;10265087;28;20257;-86
2023/08/19 00:14:37;;;;;;;12.15;9.73;;;19.10;99.90;;;;;;10263679;28;20259;-86
2023/08/19 00:19:39;;;;;;;8.13;7.43;;;19.10;99.90;;;;;;10250768;28;20230;-86
2023/08/19 00:24:41;;;;;;;11.27;10.18;;;19.10;99.90;;;;;;10256828;28;20269;-86
2023/08/19 00:29:44;;;;;;;9.68;8.75;;;19.10;99.90;;;;;;10272536;28;20654;-86
2023/08/19 00:34:49;;;;;;;12.10;10.45;;;19.00;99.90;;;;;;10257339;28;20238;-86
2023/08/19 00:39:51;;;;;;;7.85;7.10;;;19.00;99.90;;;;;;10252667;28;20708;-86
2023/08/19 00:44:54;;;;;;;12.90;10.13;;;19.10;99.90;;;;;;10255874;28;20751;-86
2023/08/19 00:49:56;;;;;;;9.30;7.55;;;19.00;99.90;;;;;;10254475;28;20284;-86
2023/08/19 00:54:59;;;;;;;11.60;10.05;;;19.00;99.90;;;;;;10244812;28;20241;-86
2023/08/19 01:00:03;;;;;;;9.23;7.75;;;19.00;99.90;;;;;;10246713;28;20295;-86
2023/08/19 01:05:06;;;;;;;9.13;7.70;;;19.00;99.90;;;;;;10264444;28;20242;-86
2023/08/19 01:10:28;;;;;;;8.70;7.90;;;19.00;99.90;;;;;;10259998;28;20303;-86
2023/08/19 01:15:35;;;;;;;9.93;8.93;;;18.90;99.90;;;;;;10253028;28;20259;-86
2023/08/19 01:20:40;;;;;;;14.63;10.68;;;19.00;99.90;;;;;;10262277;28;20225;-86
2023/08/19 01:25:43;;;;;;;9.20;8.35;;;18.90;99.90;;;;;;10271581;28;20784;-86
2023/08/19 01:30:45;;;;;;;9.45;8.55;;;18.80;99.90;;;;;;10224065;28;20308;-86
2023/08/19 01:36:01;;;;;;;11.57;9.10;;;18.80;99.90;;;;;;10268227;28;20233;-86
2023/08/19 01:41:05;;;;;;;12.27;10.32;;;18.70;99.90;;;;;;10261222;28;20334;-86
2023/08/19 01:46:07;;;;;;;7.57;6.88;;;18.50;99.90;;;;;;10249726;28;20287;-86
2023/08/19 01:51:10;;;;;;;10.48;8.93;;;18.60;99.90;;;;;;10255827;28;20288;-86
2023/08/19 01:56:12;;;;;;;11.85;10.68;;;18.60;99.90;;;;;;10253151;28;20234;-86
2023/08/19 02:01:16;;;;;;;12.60;11.30;;;18.40;99.90;;;;;;10256810;28;20338;-86
2023/08/19 02:06:18;;;;;;;18.52;10.38;;;18.30;99.90;;;;;;10256736;28;20230;-86
2023/08/19 02:11:21;;;;;;;8.68;7.63;;;18.40;99.90;;;;;;10245394;28;20253;-86
2023/08/19 02:16:23;;;;;;;9.68;8.75;;;18.30;99.90;;;;;;10262227;28;20280;-86
2023/08/19 02:21:26;;;;;;;9.65;8.70;;;18.50;99.90;;;;;;10275479;28;20237;-86
2023/08/19 02:26:29;;;;;;;11.45;10.23;;;18.30;99.90;;;;;;10253220;28;20301;-86
2023/08/19 02:31:31;;;;;;;8.77;7.97;;;18.20;99.90;;;;;;10251845;28;20257;-86
2023/08/19 02:36:34;;;;;;;10.43;9.38;;;18.20;99.90;;;;;;10247791;28;20634;-86
2023/08/19 02:41:36;;;;;;;11.73;10.43;;;18.30;99.90;;;;;;10260594;28;20643;-86
2023/08/19 02:46:39;;;;;;;10.35;9.35;;;18.10;99.90;;;;;;10246787;28;20242;-86
2023/08/19 02:51:41;;;;;;;8.18;7.35;;;18.20;99.90;;;;;;10245639;28;20254;-86
2023/08/19 02:56:45;;;;;;;9.80;8.88;;;18.20;99.90;;;;;;10255159;28;20266;-86
2023/08/19 03:01:48;;;;;;;12.13;10.32;;;18.10;99.90;;;;;;10249425;28;20691;-86
2023/08/19 03:06:51;;;;;;;13.68;9.85;;;;;;;;;;10266644;28;20242;-86
2023/08/19 03:11:53;;;;;;;11.57;8.88;;;18.20;99.90;;;;;;10244330;28;20265;-87
2023/08/19 03:16:56;;;;;;;13.85;10.00;;;18.10;99.90;;;;;;10263187;28;20237;-86
2023/08/19 03:21:59;;;;;;;10.13;9.07;;;18.10;99.90;;;;;;10270788;28;20315;-86
2023/08/19 03:27:02;;;;;;;10.98;9.13;;;18.20;99.90;;;;;;10245686;28;20707;-87
2023/08/19 03:32:06;;;;;;;10.35;9.25;;;18.20;99.90;;;;;;10258331;28;20283;-87
2023/08/19 03:37:09;;;;;;;9.10;8.20;;;18.20;99.90;;;;;;10275658;28;20279;-86
2023/08/19 03:42:12;;;;;;;12.20;10.20;;;18.20;99.90;;;;;;10270818;28;20268;-87
2023/08/19 03:47:14;;;;;;;10.05;9.15;;;18.20;99.90;;;;;;10265178;28;20639;-87
2023/08/19 03:52:17;;;;;;;15.80;11.75;;;18.10;99.90;;;;;;10282702;28;20276;-87
2023/08/19 03:57:20;;;;;;;12.82;11.07;;;18.10;99.90;;;;;;10282109;28;20205;-86
2023/08/19 04:02:26;;;;;;;10.98;9.88;;;18.00;99.90;;;;;;10277842;28;20237;-87
2023/08/19 04:07:28;;;;;;;14.30;11.55;;;18.00;99.90;;;;;;10251718;28;20238;-87
2023/08/19 04:12:32;;;;;;;13.45;12.10;;;18.10;99.90;;;;;;10246940;28;20229;-87
2023/08/19 04:17:35;;;;;;;14.10;12.60;;;18.20;99.90;;;;;;10262285;28;20225;-87
2023/08/19 04:22:38;;;;;;;11.32;10.18;;;18.00;99.90;;;;;;10253512;28;20763;-87
2023/08/19 04:27:41;;;;;;;10.73;9.65;;;18.10;99.90;;;;;;10259323;28;20265;-87
2023/08/19 04:32:43;;;;;;;13.45;12.05;;;18.20;99.90;;;;;;10257942;28;20226;-87
2023/08/19 04:37:47;;;;;;;14.65;12.38;;;18.20;99.90;;;;;;10253346;28;20237;-87
2023/08/19 04:42:49;;;;;;;16.35;13.13;;;18.20;99.90;;;;;;10239847;28;20299;-87
2023/08/19 04:47:52;;;;;;;14.05;11.70;;;18.30;99.90;;;;;;10250813;28;20779;-87
2023/08/19 04:52:56;;;;;;;15.15;13.55;;;18.40;99.90;;;;;;10254129;28;20267;-87
2023/08/19 04:57:59;;;;;;;10.70;9.50;;;18.50;99.90;;;;;;10262041;28;20289;-87
2023/08/19 05:03:03;;;;;;;10.52;9.45;;;18.80;99.90;;;;;;10236537;28;20712;-87
2023/08/19 05:08:08;;;;;;;18.08;15.80;;;18.90;99.90;;;;;;10264461;28;20386;-87
2023/08/19 05:13:10;;;;;;;13.85;10.63;;;19.00;99.90;;;;;;10271914;28;20234;-87
2023/08/19 05:18:13;;;;;;;13.75;12.07;;;19.30;99.90;;;;;;10258373;28;20282;-87
2023/08/19 05:23:16;;;;;;;14.13;12.70;;;19.40;99.90;;;;;;10267821;28;20307;-87
2023/08/19 05:28:18;;;;;;;13.05;10.02;;;19.60;99.90;;;;;;10255737;28;20298;-87
2023/08/19 05:33:21;;;;;;;10.95;9.85;;;19.60;99.90;;;;;;10267486;28;20618;-87
2023/08/19 05:38:23;;;;;;;10.98;9.88;;;19.70;99.90;;;;;;10242921;28;20246;-86
2023/08/19 05:43:26;;;;;;;12.57;10.85;;;19.80;99.90;;;;;;10250502;28;20253;-86
2023/08/19 05:48:28;;;;;;;10.30;9.30;;;19.90;99.90;;;;;;10260008;28;20766;-87
2023/08/19 05:53:31;;;;;;;11.95;10.63;;;20.10;99.90;;;;;;10239141;28;21067;-87
2023/08/19 05:58:34;;;;;;;18.23;15.20;;;20.30;99.90;;;;;;10264457;28;20282;-86
2023/08/19 06:03:37;;;;;;;24.42;18.08;;;20.40;99.90;;;;;;10266661;28;20233;-87
2023/08/19 06:08:40;;;;;;;18.92;16.92;;;20.40;99.90;;;;;;10240534;28;20250;-87
2023/08/19 06:13:42;;;;;;;21.17;17.95;;;20.50;99.90;;;;;;10259714;28;20233;-86
2023/08/19 06:18:45;;;;;;;17.73;13.45;;;20.60;99.90;;;;;;10268381;28;20238;-87
2023/08/19 06:23:48;;;;;;;17.52;14.20;;;20.70;99.90;;;;;;10279426;28;20311;-86
2023/08/19 06:28:50;;;;;;;9.63;8.73;;;20.90;99.90;;;;;;10286261;28;20298;-87
2023/08/19 06:33:54;;;;;;;12.55;11.35;;;21.00;99.90;;;;;;10283474;28;20237;-86
2023/08/19 06:39:37;;;;;;;19.42;17.40;;;21.20;99.90;;;;;;10245840;28;20238;-86
2023/08/19 06:44:41;;;;;;;8.65;7.85;;;21.30;99.90;;;;;;10246710;28;20784;-87
2023/08/19 06:49:44;;;;;;;11.13;9.95;;;21.50;99.90;;;;;;10284918;28;20261;-86
2023/08/19 06:54:48;;;;;;;9.10;8.30;;;21.60;99.90;;;;;;10285450;28;20234;-86
2023/08/19 06:59:52;;;;;;;13.23;11.82;;;;;;;;;;10266019;28;20246;-86
2023/08/19 07:04:59;;;;;;;15.23;13.57;;;21.80;99.90;;;;;;10282560;28;20237;-86
2023/08/19 07:10:05;;;;;;;9.73;8.80;;;22.10;99.90;;;;;;10254502;28;20315;-86
2023/08/19 07:15:12;;;;;;;18.33;16.10;;;22.20;99.90;;;;;;10254807;28;20238;-86
2023/08/19 07:20:16;;;;;;;17.65;12.65;;;22.40;99.90;;;;;;10247608;28;20311;-86
2023/08/19 07:25:19;;;;;;;11.43;10.20;;;22.60;99.90;;;;;;10251010;28;20261;-86
2023/08/19 07:30:22;;;;;;;14.60;12.95;;;22.80;99.90;;;;;;10261724;28;20636;-87
2023/08/19 07:35:25;;;;;;;10.23;9.23;;;22.90;99.90;;;;;;10261918;28;20255;-86
2023/08/19 07:40:28;;;;;;;10.50;9.43;;;23.10;99.90;;;;;;10261170;28;20273;-86
2023/08/19 07:45:30;;;;;;;18.63;14.75;;;23.30;99.90;;;;;;10246684;28;20639;-86
2023/08/19 07:50:34;;;;;;;9.52;8.18;;;23.30;99.90;;;;;;10267190;28;20733;-87
2023/08/19 07:55:36;;;;;;;10.05;9.00;;;23.50;99.90;;;;;;10268932;28;20229;-86
2023/08/19 08:00:39;;;;;;;10.73;9.63;;;23.70;99.90;;;;;;10260714;28;20303;-86
2023/08/19 08:05:42;;;;;;;5.32;4.90;;;23.90;99.90;;;;;;10260527;28;20249;-87
2023/08/19 08:10:44;;;;;;;6.00;5.50;;;24.10;99.90;;;;;;10266066;28;21024;-86
2023/08/19 08:15:48;;;;;;;10.63;9.50;;;24.20;99.90;;;;;;10251533;28;20676;-87
2023/08/19 08:20:50;;;;;;;5.20;4.80;;;24.40;99.90;;;;;;10269100;28;20228;-86
2023/08/19 08:25:53;;;;;;;9.30;8.50;;;24.50;99.90;;;;;;10272822;28;20722;-86
2023/08/19 08:30:55;;;;;;;12.30;10.00;;;24.60;99.90;;;;;;10273498;28;20257;-87
2023/08/19 08:35:59;;;;;;;9.35;8.43;;;24.80;99.90;;;;;;10267091;28;20222;-87
2023/08/19 08:41:08;;;;;;;8.43;7.55;;;24.90;99.10;;;;;;10243190;28;20634;-85
2023/08/19 08:46:12;;;;;;;8.07;7.20;;;25.10;99.90;;;;;;10258135;28;20206;-86
2023/08/19 08:51:18;;;;;;;8.85;7.95;;;25.20;99.10;;;;;;10287907;28;20637;-85
2023/08/19 08:56:22;;;;;;;8.43;7.53;;;25.30;98.80;;;;;;10248764;28;20288;-85
2023/08/19 09:01:27;;;;;;;8.15;5.80;;;25.40;97.20;;;;;;10285038;28;20318;-85
2023/08/19 09:06:30;;;;;;;11.48;10.02;;;25.50;97.80;;;;;;10277627;28;20224;-86
2023/08/19 09:11:36;;;;;;;7.05;6.43;;;25.60;96.60;;;;;;10280763;28;20881;-85
2023/08/19 09:16:39;;;;;;;10.10;9.18;;;25.80;97.30;;;;;;10243537;28;20256;-85
2023/08/19 09:21:42;;;;;;;6.57;5.97;;;25.80;94.90;;;;;;10246483;28;20207;-86
2023/08/19 09:26:44;;;;;;;8.15;7.35;;;25.90;96.90;;;;;;10243438;28;20270;-86
2023/08/19 09:31:53;;;;;;;7.03;5.60;;;26.00;96.70;;;;;;10241116;28;20258;-86
2023/08/19 09:36:57;;;;;;;6.78;6.18;;;26.10;95.30;;;;;;10267720;28;20222;-87
2023/08/19 09:42:00;;;;;;;8.35;7.57;;;26.10;94.00;;;;;;10265522;28;20210;-86
2023/08/19 09:47:04;;;;;;;6.00;5.53;;;26.30;94.70;;;;;;10270445;28;20628;-86
2023/08/19 09:52:16;;;;;;;9.65;8.75;;;26.40;95.50;;;;;;10266183;28;20830;-86
2023/08/19 09:57:39;;;;;;;9.80;8.80;;;26.50;94.10;;;;;;10275785;28;20224;-86
2023/08/19 10:02:42;;;;;;;8.38;7.57;;;26.50;94.30;;;;;;10274516;28;20241;-86
2023/08/19 10:07:52;;;;;;;9.25;8.45;;;;;;;;;;10288374;28;20208;-86
2023/08/19 10:12:56;;;;;;;5.68;5.18;;;26.70;93.80;;;;;;10294706;28;20226;-85
2023/08/19 10:18:03;;;;;;;4.50;4.10;;;26.80;91.90;;;;;;10300332;28;20202;-85
2023/08/19 10:23:08;;;;;;;5.25;4.85;;;26.80;91.70;;;;;;10321407;28;20203;-85
2023/08/19 10:28:13;;;;;;;7.72;7.10;;;26.90;90.20;;;;;;10311752;28;20202;-85
2023/08/19 10:33:33;;;;;;;7.75;7.00;;;26.90;89.70;;;;;;10280591;28;20252;-86
2023/08/19 10:38:47;;;;;;;5.82;5.32;;;26.90;86.80;;;;;;10305252;28;20205;-87
2023/08/19 10:44:04;;;;;;;4.80;4.40;;;27.00;83.20;;;;;;10301767;28;20217;-86
2023/08/19 10:49:11;;;;;;;8.60;7.72;;;27.00;87.10;;;;;;10332079;28;20200;-86
2023/08/19 10:54:23;;;;;;;6.07;5.57;;;27.10;89.70;;;;;;10358316;28;20228;-86
2023/08/19 10:59:26;;;;;;;8.55;7.57;;;27.20;88.40;;;;;;10332430;28;20201;-85
2023/08/19 11:04:28;;;;;;;5.93;5.43;;;27.20;86.60;;;;;;10306423;28;20186;-85
2023/08/19 11:09:31;;;;;;;6.85;6.22;;;27.20;86.20;;;;;;10333921;28;20248;-86
2023/08/19 11:14:34;;;;;;;12.57;11.38;;;27.30;81.00;;;;;;10305658;28;20194;-86
2023/08/19 11:19:36;;;;;;;8.30;7.50;;;27.30;78.30;;;;;;10301226;28;20263;-84
2023/08/19 11:24:40;;;;;;;7.38;6.72;;;27.40;80.70;;;;;;10272355;28;20332;-85
2023/08/19 11:29:46;;;;;;;5.53;5.03;;;27.50;81.60;;;;;;10265504;29;20221;-85
2023/08/19 11:34:49;;;;;;;8.60;7.40;;;27.40;82.40;;;;;;10306164;28;20224;-86
2023/08/19 11:39:51;;;;;;;6.55;5.22;;;27.40;80.70;;;;;;10284928;28;20264;-85
2023/08/19 11:44:56;;;;;;;9.20;7.45;;;27.40;80.40;;;;;;9934106;28;10000030;-85
2023/08/19 11:49:58;;;;;;;10.30;7.30;;;27.50;80.60;;;;;;10301333;28;20222;-86
2023/08/19 11:55:06;;;;;;;8.20;7.45;;;27.60;77.50;;;;;;10290939;28;20221;-85
2023/08/19 12:00:17;;;;;;;8.45;7.65;;;27.60;83.30;;;;;;10269608;28;20197;-87
2023/08/19 12:05:25;;;;;;;8.80;7.97;;;27.60;69.30;;;;;;10278370;28;20214;-87
2023/08/19 12:10:40;;;;;;;9.30;8.40;;;27.60;68.20;;;;;;10256698;28;20260;-86
2023/08/19 12:15:43;;;;;;;11.90;8.93;;;27.70;75.70;;;;;;10274482;28;20197;-88
2023/08/19 12:20:46;;;;;;;8.85;7.95;;;27.90;77.10;;;;;;10296468;28;20250;-87
2023/08/19 12:25:57;;;;;;;9.45;8.55;;;27.90;71.30;;;;;;10298036;28;20251;-87
2023/08/19 12:31:00;;;;;;;5.82;5.32;;;27.90;70.30;;;;;;10304737;28;20256;-87
2023/08/19 12:36:03;;;;;;;9.50;8.48;;;28.00;71.60;;;;;;10301249;28;20220;-87
2023/08/19 12:41:21;;;;;;;9.02;8.23;;;28.00;69.30;;;;;;10297394;28;20205;-87
2023/08/19 12:46:31;;;;;;;8.52;7.72;;;27.90;71.00;;;;;;10296437;28;20213;-87
2023/08/19 12:51:33;;;;;;;9.40;8.05;;;27.90;72.50;;;;;;10295267;28;20234;-88
2023/08/19 12:56:36;;;;;;;6.57;6.07;;;27.90;70.30;;;;;;10297088;28;20229;-88
2023/08/19 13:01:39;;;;;;;9.68;8.75;;;27.90;73.90;;;;;;10302978;28;20629;-88
2023/08/19 13:06:46;;;;;;;9.35;8.43;;;27.90;72.90;;;;;;10297045;28;20271;-88
2023/08/19 13:11:48;;;;;;;7.28;6.57;;;27.90;68.10;;;;;;10294635;28;20237;-88
2023/08/19 13:16:51;;;;;;;10.20;9.10;;;28.00;64.50;;;;;;10292956;28;20239;-88
2023/08/19 13:21:53;;;;;;;9.80;8.90;;;28.00;68.50;;;;;;10293698;28;20209;-88
2023/08/19 13:26:57;;;;;;;9.38;8.35;;;28.10;68.30;;;;;;10289284;28;20595;-88
2023/08/19 13:31:59;;;;;;;8.98;8.18;;;28.10;67.70;;;;;;10301107;28;20221;-88
2023/08/19 13:37:03;;;;;;;8.98;8.18;;;28.10;69.60;;;;;;10293169;28;20210;-87
2023/08/19 13:42:06;;;;;;;15.95;8.80;;;28.20;67.50;;;;;;10251735;28;20207;-88
2023/08/19 13:47:09;;;;;;;9.27;8.45;;;28.30;66.80;;;;;;10252297;28;20202;-87
2023/08/19 13:52:38;;;;;;;10.02;9.02;;;28.40;67.20;;;;;;10242440;28;20599;-86
2023/08/19 13:57:41;;;;;;;10.20;9.30;;;28.40;65.60;;;;;;10244619;28;20194;-87
2023/08/19 14:02:44;;;;;;;12.68;10.07;;;28.40;66.10;;;;;;10262091;28;20271;-86
2023/08/19 14:07:47;;;;;;;10.82;9.73;;;28.30;63.00;;;;;;10281977;28;20219;-86
2023/08/19 14:12:50;;;;;;;10.02;8.80;;;28.40;68.90;;;;;;10282565;28;20286;-86
2023/08/19 14:17:53;;;;;;;9.38;8.45;;;28.50;63.70;;;;;;10284391;28;20198;-86
2023/08/19 14:22:56;;;;;;;10.13;9.13;;;28.50;63.80;;;;;;10257060;28;20284;-85
2023/08/19 14:27:58;;;;;;;9.88;8.35;;;28.40;63.40;;;;;;10262552;28;20256;-86
2023/08/19 14:33:03;;;;;;;9.60;8.70;;;28.40;64.40;;;;;;10239213;28;20266;-87
2023/08/19 14:38:05;;;;;;;9.27;7.82;;;28.30;62.00;;;;;;10240197;28;20246;-87
2023/08/19 14:43:08;;;;;;;9.05;8.25;;;28.30;64.30;;;;;;10239827;28;20291;-86
2023/08/19 14:48:11;;;;;;;5.93;5.43;;;28.10;65.40;;;;;;10259592;28;20643;-87
2023/08/19 14:53:13;;;;;;;9.50;8.10;;;28.10;64.30;;;;;;10243905;28;20327;-87
2023/08/19 14:58:16;;;;;;;8.48;7.57;;;28.00;65.50;;;;;;10246270;28;20239;-86
2023/08/19 15:03:19;;;;;;;9.30;7.43;;;28.10;62.70;;;;;;10246177;28;20289;-85
2023/08/19 15:08:22;;;;;;;9.32;8.52;;;28.20;63.40;;;;;;10245273;28;20295;-85
2023/08/19 15:13:24;;;;;;;8.88;8.07;;;28.00;66.50;;;;;;10244204;28;20720;-86
2023/08/19 15:18:27;;;;;;;9.18;8.35;;;27.90;69.00;;;;;;10244442;28;20237;-85
2023/08/19 15:23:29;;;;;;;9.88;8.30;;;27.90;68.30;;;;;;10260464;28;20253;-86
2023/08/19 15:28:32;;;;;;;7.45;6.80;;;27.70;70.50;;;;;;10252288;28;20238;-85
2023/08/19 15:33:34;;;;;;;16.63;14.93;;;27.80;68.90;;;;;;10259485;28;20302;-86
2023/08/19 15:38:37;;;;;;;8.10;7.40;;;27.90;64.30;;;;;;10268192;28;20230;-86
2023/08/19 15:43:39;;;;;;;7.35;6.60;;;28.00;66.40;;;;;;10254124;28;20226;-88
2023/08/19 15:48:43;;;;;;;9.77;8.88;;;28.00;69.40;;;;;;10245546;28;20617;-87
2023/08/19 15:53:49;;;;;;;8.05;7.35;;;27.80;70.40;;;;;;10282179;28;20253;-88
2023/08/19 15:58:52;;;;;;;9.05;8.25;;;27.70;71.50;;;;;;10249528;28;20233;-88
2023/08/19 16:03:55;;;;;;;8.68;7.80;;;27.60;73.40;;;;;;10242564;28;20268;-88
2023/08/19 16:09:00;;;;;;;6.60;6.00;;;27.60;74.60;;;;;;10245045;28;20246;-88
2023/08/19 16:14:05;;;;;;;12.55;8.30;;;27.60;75.40;;;;;;10265741;28;20291;-86
2023/08/19 16:19:07;;;;;;;10.23;7.80;;;27.50;76.00;;;;;;10258173;28;20304;-86
2023/08/19 16:24:13;;;;;;;7.35;6.60;;;27.50;75.00;;;;;;10243605;28;20299;-86
2023/08/19 16:29:15;;;;;;;7.57;6.85;;;27.50;75.40;;;;;;10260011;28;20238;-87
2023/08/19 16:34:18;;;;;;;10.65;7.82;;;27.50;74.10;;;;;;10257652;28;20283;-85
2023/08/19 16:39:20;;;;;;;11.48;10.38;;;27.50;76.50;;;;;;10282525;28;20306;-86
2023/08/19 16:44:23;;;;;;;9.98;8.90;;;27.40;78.10;;;;;;10280630;28;20298;-86
2023/08/19 16:49:26;;;;;;;10.75;8.77;;;27.50;76.40;;;;;;10281410;28;20225;-87
2023/08/19 16:54:28;;;;;;;11.18;9.57;;;27.50;78.80;;;;;;10281822;28;20252;-87
2023/08/19 16:59:31;;;;;;;10.50;9.55;;;27.50;77.80;;;;;;10281887;28;20226;-86
2023/08/19 17:04:33;;;;;;;8.32;7.40;;;27.60;79.40;;;;;;10252343;28;20673;-86
2023/08/19 17:09:40;;;;;;;11.95;10.00;;;27.60;80.40;;;;;;10267357;28;20290;-86
2023/08/19 17:14:42;;;;;;;16.17;13.95;;;27.50;85.80;;;;;;10275999;28;20265;-86
2023/08/19 17:19:45;;;;;;;13.95;12.63;;;27.40;92.50;;;;;;10242439;28;20230;-86
2023/08/19 17:24:48;;;;;;;16.13;14.38;;;27.30;92.80;;;;;;10249914;28;20258;-86
2023/08/19 17:29:50;;;;;;;15.70;13.30;;;27.10;95.40;;;;;;10252634;28;20363;-86
2023/08/19 17:34:53;;;;;;;14.77;13.25;;;26.90;97.00;;;;;;10240952;28;20261;-86
2023/08/19 17:39:56;;;;;;;19.02;14.90;;;26.60;97.80;;;;;;10240458;28;20230;-86
2023/08/19 17:44:59;;;;;;;25.98;20.55;;;26.30;97.30;;;;;;10240853;28;20238;-86
2023/08/19 17:50:02;;;;;;;77.75;44.22;;;26.00;99.70;;;;;;10240223;28;20640;-86
2023/08/19 17:55:05;;;;;;;102.82;48.30;;;25.60;99.90;;;;;;10239397;28;20253;-86
2023/08/19 18:00:09;;;;;;;52.40;30.30;;;25.20;99.90;;;;;;10239941;28;20233;-86
2023/08/19 18:05:14;;;;;;;30.85;21.33;;;25.00;99.90;;;;;;10238499;28;20678;-86
2023/08/19 18:10:16;;;;;;;26.42;17.75;;;24.70;99.90;;;;;;10239401;28;20249;-86
2023/08/19 18:15:19;;;;;;;26.42;19.70;;;24.50;99.90;;;;;;10238444;28;20265;-86
2023/08/19 18:20:22;;;;;;;30.33;21.92;;;24.30;99.90;;;;;;10239803;28;20770;-86
2023/08/19 18:25:24;;;;;;;29.02;19.10;;;24.00;99.90;;;;;;10245959;28;20310;-86
2023/08/19 18:30:27;;;;;;;35.50;22.58;;;23.80;99.90;;;;;;10245997;28;20242;-87
2023/08/19 18:35:30;;;;;;;25.13;19.00;;;23.60;99.90;;;;;;10245961;28;20261;-87
2023/08/19 18:40:33;;;;;;;19.77;14.82;;;23.40;99.90;;;;;;10247019;28;20242;-87
2023/08/19 18:45:35;;;;;;;17.90;14.43;;;23.30;99.90;;;;;;10245477;28;20234;-86
2023/08/19 18:50:41;;;;;;;15.30;13.73;;;23.20;99.90;;;;;;10245607;28;20285;-86
2023/08/19 18:55:44;;;;;;;22.00;15.70;;;23.10;99.90;;;;;;10245349;28;21427;-85
2023/08/19 19:00:46;;;;;;;17.60;13.43;;;23.00;99.90;;;;;;10245832;28;20230;-86
2023/08/19 19:05:49;;;;;;;32.35;20.25;;;22.90;99.90;;;;;;10244118;28;20237;-86
2023/08/19 19:10:51;;;;;;;129.57;70.27;;;22.80;99.90;;;;;;10244941;28;20379;-85
2023/08/19 19:15:54;;;;;;;73.10;42.28;;;22.60;99.90;;;;;;10245008;28;20280;-85
2023/08/19 19:20:58;;;;;;;52.85;32.65;;;22.50;99.90;;;;;;10244081;28;20264;-85
2023/08/19 19:26:02;;;;;;;56.75;32.33;;;22.30;99.90;;;;;;10242285;28;20328;-85
2023/08/19 19:31:06;;;;;;;51.03;31.70;;;22.30;99.90;;;;;;10260918;28;20238;-85
2023/08/19 19:36:09;;;;;;;39.67;25.90;;;22.20;99.90;;;;;;10280190;28;20226;-85
2023/08/19 19:41:11;;;;;;;25.98;19.83;;;22.00;99.90;;;;;;10279634;28;20249;-86
2023/08/19 19:46:14;;;;;;;32.65;20.75;;;21.90;99.90;;;;;;10258822;28;20242;-85
2023/08/19 19:51:17;;;;;;;38.10;22.73;;;21.90;99.90;;;;;;10244418;28;20218;-86
2023/08/19 19:56:20;;;;;;;22.10;18.10;;;21.80;99.90;;;;;;10243112;28;20652;-86
2023/08/19 20:01:23;;;;;;;18.67;13.98;;;21.70;99.90;;;;;;10243962;28;20238;-85
2023/08/19 20:06:25;;;;;;;23.05;14.75;;;21.70;99.90;;;;;;10251400;28;20706;-86
2023/08/19 20:11:27;;;;;;;22.63;19.50;;;21.70;99.90;;;;;;10241492;29;20688;-86
2023/08/19 20:16:30;;;;;;;29.40;19.98;;;21.60;99.90;;;;;;10244237;28;20242;-86
2023/08/19 20:21:33;;;;;;;23.48;18.75;;;21.50;99.90;;;;;;9899220;28;10000127;-86
2023/08/19 20:26:36;;;;;;;31.98;21.50;;;21.40;99.90;;;;;;10240156;28;20274;-86
2023/08/19 20:31:38;;;;;;;22.27;19.95;;;21.40;99.90;;;;;;10240037;28;20262;-86
2023/08/19 20:36:41;;;;;;;39.17;28.92;;;21.30;99.90;;;;;;10241023;28;20912;-86
2023/08/19 20:41:44;;;;;;;59.33;46.53;;;21.20;99.90;;;;;;10237461;28;20254;-86
2023/08/19 20:46:46;;;;;;;32.25;28.00;;;21.10;99.90;;;;;;10237973;28;20762;-86
2023/08/19 20:51:49;;;;;;;29.35;21.63;;;21.10;99.90;;;;;;10259542;28;20318;-85
2023/08/19 20:56:53;;;;;;;17.50;13.43;;;21.10;99.90;;;;;;10278083;28;20249;-87
2023/08/19 21:01:55;;;;;;;20.10;17.83;;;21.10;99.90;;;;;;10280114;28;20237;-87
2023/08/19 21:06:58;;;;;;;15.65;13.90;;;21.10;99.90;;;;;;10254959;28;20307;-86
2023/08/19 21:12:00;;;;;;;18.77;16.77;;;21.00;99.90;;;;;;10237586;28;20262;-87
2023/08/19 21:17:03;;;;;;;24.35;17.00;;;21.00;99.90;;;;;;10239420;28;20230;-86
2023/08/19 21:22:06;;;;;;;20.48;14.93;;;21.00;99.90;;;;;;10304642;28;20245;-86
2023/08/19 21:27:10;;;;;;;13.93;12.45;;;20.90;99.90;;;;;;10318950;28;20313;-86
2023/08/19 21:32:13;;;;;;;11.30;9.93;;;20.80;99.90;;;;;;10301124;28;20258;-86
2023/08/19 21:37:15;;;;;;;19.83;15.02;;;20.80;99.90;;;;;;10269654;28;20653;-85
2023/08/19 21:42:17;;;;;;;20.42;17.35;;;20.80;99.90;;;;;;10260838;28;20226;-86
2023/08/19 21:47:20;;;;;;;25.25;16.60;;;20.80;99.90;;;;;;10257635;28;20311;-86
2023/08/19 21:52:23;;;;;;;22.88;13.38;;;20.60;99.90;;;;;;10237175;28;20682;-87
2023/08/19 21:57:25;;;;;;;23.33;17.85;;;20.60;99.90;;;;;;10241802;28;20299;-87
2023/08/19 22:02:28;;;;;;;20.73;16.23;;;20.60;99.90;;;;;;10254874;28;20809;-87
2023/08/19 22:07:30;;;;;;;16.92;13.75;;;20.50;99.90;;;;;;10268700;28;20635;-88
2023/08/19 22:12:34;;;;;;;24.67;18.58;;;20.50;99.90;;;;;;10245252;28;20720;-87
2023/08/19 22:17:37;;;;;;;28.23;18.63;;;20.50;99.90;;;;;;10261155;28;20233;-87
2023/08/19 22:22:40;;;;;;;22.30;16.83;;;20.40;99.90;;;;;;10246919;28;20234;-87
2023/08/19 22:27:43;;;;;;;18.05;15.23;;;20.40;99.90;;;;;;10244417;28;20266;-88
2023/08/19 22:32:46;;;;;;;20.25;16.67;;;20.40;99.90;;;;;;10277827;28;20254;-87
2023/08/19 22:37:49;;;;;;;16.20;13.35;;;20.40;99.90;;;;;;10282200;28;20668;-87
2023/08/19 22:42:51;;;;;;;18.95;15.82;;;20.40;99.90;;;;;;10282373;28;20279;-87
2023/08/19 22:47:54;;;;;;;18.85;14.07;;;20.30;99.90;;;;;;10283218;28;20264;-88
2023/08/19 22:52:57;;;;;;;19.17;15.77;;;20.20;99.90;;;;;;10246207;28;20249;-87
2023/08/19 22:57:59;;;;;;;21.63;18.38;;;20.20;99.90;;;;;;10242764;28;20242;-87
2023/08/19 23:03:02;;;;;;;23.63;20.35;;;20.20;99.90;;;;;;10277177;28;20279;-88
2023/08/19 23:08:05;;;;;;;17.00;15.30;;;20.10;99.90;;;;;;10258336;28;20260;-87
2023/08/19 23:13:08;;;;;;;22.05;19.13;;;20.10;99.90;;;;;;10242449;28;20269;-88
2023/08/19 23:18:10;;;;;;;15.77;14.13;;;20.10;99.90;;;;;;10255134;28;20243;-87
2023/08/19 23:23:13;;;;;;;20.13;17.35;;;20.00;99.90;;;;;;10241682;28;20268;-87
2023/08/19 23:28:16;;;;;;;12.63;11.32;;;20.00;99.90;;;;;;10242435;28;20254;-87
2023/08/19 23:33:18;;;;;;;15.13;13.65;;;19.90;99.90;;;;;;10242410;28;20254;-87
2023/08/19 23:38:21;;;;;;;20.25;18.15;;;19.90;99.90;;;;;;10242848;28;20260;-87
2023/08/19 23:43:23;;;;;;;17.10;15.20;;;19.90;99.90;;;;;;10272943;28;20635;-87
2023/08/19 23:48:26;;;;;;;17.98;15.95;;;19.80;99.90;;;;;;10241859;28;20238;-87
2023/08/19 23:53:35;;;;;;;16.08;14.38;;;19.70;99.90;;;;;;10243493;28;20389;-87
2023/08/19 23:58:38;;;;;;;23.60;15.95;;;19.80;99.90;;;;;;10241447;28;20234;-87
